createdAt,value
2018-03-04T00:00:12.549Z,19.90
2018-03-04T00:02:40.094Z,20.17
2018-03-04T00:05:07.573Z,19.55
2018-03-04T00:07:35.088Z,20.15
2018-03-04T00:10:02.564Z,18.70
2018-03-04T00:12:30.820Z,23.35
2018-03-04T00:14:58.384Z,20.73
2018-03-04T00:17:25.873Z,20.37
2018-03-04T00:19:54.107Z,19.77
2018-03-04T00:25:19.009Z,21.45
2018-03-04T00:27:46.497Z,19.50
2018-03-04T00:30:13.956Z,19.98
2018-03-04T00:32:41.507Z,21.08
2018-03-04T00:35:09.086Z,22.42
2018-03-04T00:37:37.323Z,19.85
2018-03-04T00:40:04.780Z,18.60
2018-03-04T00:42:32.315Z,20.73
2018-03-04T00:44:59.780Z,21.35
2018-03-04T00:47:27.256Z,20.20
2018-03-04T00:49:54.782Z,22.45
2018-03-04T00:52:22.244Z,21.95
2018-03-04T00:54:49.728Z,19.58
2018-03-04T00:57:17.291Z,21.33
2018-03-04T00:59:44.864Z,23.00
2018-03-04T01:02:12.350Z,22.25
2018-03-04T01:04:40.581Z,20.08
2018-03-04T01:07:08.046Z,22.48
2018-03-04T01:09:35.512Z,22.92
2018-03-04T01:12:02.977Z,19.25
2018-03-04T01:14:31.308Z,22.48
2018-03-04T01:16:58.776Z,22.70
2018-03-04T01:19:26.251Z,21.48
2018-03-04T01:21:53.811Z,23.58
2018-03-04T01:24:21.363Z,21.55
2018-03-04T01:26:49.654Z,23.35
2018-03-04T01:29:17.177Z,21.33
2018-03-04T01:31:44.656Z,22.50
2018-03-04T01:34:12.120Z,20.60
2018-03-04T01:36:39.624Z,23.00
2018-03-04T01:39:07.131Z,22.90
2018-03-04T01:41:34.599Z,23.48
2018-03-04T01:44:02.140Z,21.15
2018-03-04T01:46:29.612Z,21.37
2018-03-04T01:48:57.067Z,22.73
2018-03-04T01:51:36.417Z,23.65
2018-03-04T01:54:04.660Z,23.00
2018-03-04T01:56:32.152Z,22.70
2018-03-04T01:59:00.380Z,23.52
2018-03-04T02:01:27.852Z,20.45
2018-03-04T02:03:55.423Z,21.62
2018-03-04T02:06:22.945Z,22.70
2018-03-04T02:08:50.425Z,23.10
2018-03-04T02:11:17.902Z,22.65
2018-03-04T02:13:45.386Z,22.70
2018-03-04T02:16:12.852Z,23.75
2018-03-04T02:18:40.374Z,22.33
2018-03-04T02:21:07.842Z,22.42
2018-03-04T02:23:36.102Z,22.02
2018-03-04T02:26:03.564Z,23.15
2018-03-04T02:28:31.827Z,22.23
2018-03-04T02:30:59.308Z,24.17
2018-03-04T02:33:27.581Z,22.67
2018-03-04T02:35:55.842Z,22.27
2018-03-04T02:38:23.319Z,21.55
2018-03-04T02:40:51.570Z,21.70
2018-03-04T02:43:19.077Z,22.33
2018-03-04T02:45:46.588Z,21.87
2018-03-04T02:48:14.869Z,22.30
2018-03-04T02:50:43.144Z,20.50
2018-03-04T02:53:10.647Z,25.12
2018-03-04T02:55:38.121Z,20.50
2018-03-04T02:58:05.613Z,23.45
2018-03-04T03:00:33.085Z,22.52
2018-03-04T03:03:01.341Z,22.15
2018-03-04T03:05:28.899Z,23.27
2018-03-04T03:07:56.427Z,23.80
2018-03-04T03:10:23.909Z,23.33
2018-03-04T03:12:51.374Z,23.50
2018-03-04T03:15:18.939Z,23.45
2018-03-04T03:17:47.181Z,22.23
2018-03-04T03:20:14.688Z,23.58
2018-03-04T03:22:42.932Z,25.00
2018-03-04T03:25:10.489Z,25.52
2018-03-04T03:27:37.969Z,24.65
2018-03-04T03:30:06.226Z,23.17
2018-03-04T03:32:34.496Z,22.05
2018-03-04T03:35:02.060Z,22.27
2018-03-04T03:37:30.341Z,23.58
2018-03-04T03:39:57.799Z,23.77
2018-03-04T03:42:25.365Z,22.87
2018-03-04T03:44:53.620Z,23.77
2018-03-04T03:47:21.101Z,23.65
2018-03-04T03:49:49.369Z,22.73
2018-03-04T03:52:17.632Z,22.70
2018-03-04T03:54:45.118Z,23.65
2018-03-04T03:57:12.662Z,24.20
2018-03-04T03:59:40.130Z,24.05
2018-03-04T04:02:08.418Z,26.60
2018-03-04T04:04:37.014Z,24.58
2018-03-04T04:07:04.537Z,21.58
2018-03-04T04:09:32.005Z,22.08
2018-03-04T04:12:00.330Z,24.48
2018-03-04T04:14:27.775Z,25.33
2018-03-04T04:16:55.282Z,23.55
2018-03-04T04:19:22.749Z,24.20
2018-03-04T04:21:50.229Z,24.90
2018-03-04T04:24:17.731Z,25.73
2018-03-04T04:26:45.244Z,23.17
2018-03-04T04:29:12.724Z,25.00
2018-03-04T04:31:40.203Z,24.52
2018-03-04T04:34:07.686Z,24.08
2018-03-04T04:36:35.197Z,23.40
2018-03-04T04:39:02.706Z,26.40
2018-03-04T04:41:30.966Z,21.95
2018-03-04T04:43:58.437Z,22.80
2018-03-04T04:46:25.950Z,25.88
2018-03-04T04:48:53.557Z,25.10
2018-03-04T04:51:21.830Z,23.50
2018-03-04T04:53:49.286Z,23.15
2018-03-04T04:56:17.528Z,24.63
2018-03-04T04:58:45.045Z,24.15
2018-03-04T05:01:12.522Z,25.05
2018-03-04T05:03:40.000Z,24.80
2018-03-04T05:06:07.465Z,23.77
2018-03-04T05:08:34.941Z,25.27
2018-03-04T05:11:02.490Z,23.62
2018-03-04T05:13:30.756Z,24.45
2018-03-04T05:15:58.220Z,26.10
2018-03-04T05:18:25.684Z,23.73
2018-03-04T05:20:53.241Z,24.15
2018-03-04T05:23:20.738Z,24.85
2018-03-04T05:25:48.220Z,23.05
2018-03-04T05:28:15.714Z,22.15
2018-03-04T05:30:43.244Z,24.70
2018-03-04T05:33:10.778Z,23.60
2018-03-04T05:35:38.291Z,24.48
2018-03-04T05:38:05.851Z,24.25
2018-03-04T05:40:33.404Z,26.30
2018-03-04T05:43:00.871Z,24.73
2018-03-04T05:45:29.140Z,23.80
2018-03-04T05:47:56.804Z,24.05
2018-03-04T05:50:24.356Z,23.87
2018-03-04T05:52:51.888Z,24.58
2018-03-04T05:55:19.370Z,22.37
2018-03-04T05:57:46.929Z,24.33
2018-03-04T06:00:14.400Z,25.67
2018-03-04T06:02:42.641Z,22.80
2018-03-04T06:05:10.128Z,25.40
2018-03-04T06:07:37.609Z,26.85
2018-03-04T06:10:05.090Z,25.02
2018-03-04T06:12:32.568Z,24.73
2018-03-04T06:15:00.051Z,25.73
2018-03-04T06:17:27.521Z,22.30
2018-03-04T06:19:55.786Z,25.45
2018-03-04T06:22:24.039Z,22.10
2018-03-04T06:24:51.632Z,25.17
2018-03-04T06:27:19.864Z,24.65
2018-03-04T06:29:47.339Z,24.45
2018-03-04T06:32:14.803Z,24.10
2018-03-04T06:34:42.363Z,25.15
2018-03-04T06:37:09.846Z,25.30
2018-03-04T06:39:38.105Z,23.77
2018-03-04T06:42:06.348Z,23.62
2018-03-04T06:44:33.831Z,25.48
2018-03-04T06:47:02.083Z,23.95
2018-03-04T06:49:29.565Z,23.17
2018-03-04T06:51:57.891Z,23.33
2018-03-04T06:54:25.361Z,23.90
2018-03-04T06:56:52.850Z,24.42
2018-03-04T06:59:20.404Z,23.87
2018-03-04T07:01:47.872Z,25.08
2018-03-04T07:04:15.356Z,22.17
2018-03-04T07:06:42.866Z,23.48
2018-03-04T07:09:10.334Z,24.45
2018-03-04T07:11:37.800Z,25.00
2018-03-04T07:14:05.363Z,25.08
2018-03-04T07:16:33.609Z,22.85
2018-03-04T07:19:01.099Z,24.05
2018-03-04T07:21:29.361Z,22.87
2018-03-04T07:23:56.926Z,25.20
2018-03-04T07:26:24.506Z,23.65
2018-03-04T07:28:52.756Z,21.95
2018-03-04T07:31:20.319Z,22.05
2018-03-04T07:33:47.816Z,24.75
2018-03-04T07:36:15.288Z,25.05
2018-03-04T07:38:42.791Z,24.27
2018-03-04T07:41:11.064Z,22.83
2018-03-04T07:43:38.634Z,22.23
2018-03-04T07:46:06.915Z,23.67
2018-03-04T07:48:35.188Z,23.48
2018-03-04T07:51:03.451Z,25.40
2018-03-04T07:53:31.022Z,22.40
2018-03-04T07:55:59.273Z,23.27
2018-03-04T07:58:26.744Z,23.48
2018-03-04T08:00:54.230Z,24.17
2018-03-04T08:03:21.697Z,25.92
2018-03-04T08:05:49.214Z,23.33
2018-03-04T08:08:16.672Z,22.52
2018-03-04T08:10:44.914Z,23.30
2018-03-04T08:13:12.412Z,22.73
2018-03-04T08:15:40.726Z,25.88
2018-03-04T08:18:08.227Z,23.95
2018-03-04T08:20:35.705Z,22.62
2018-03-04T08:23:03.956Z,24.25
2018-03-04T08:25:35.628Z,25.23
2018-03-04T08:28:15.644Z,25.60
2018-03-04T08:30:43.178Z,24.05
2018-03-04T08:33:10.638Z,23.40
2018-03-04T08:35:38.149Z,24.85
2018-03-04T08:38:06.425Z,25.90
2018-03-04T08:40:34.668Z,26.02
2018-03-04T08:43:02.143Z,25.92
2018-03-04T08:45:29.618Z,26.62
2018-03-04T08:47:57.865Z,25.62
2018-03-04T08:50:25.436Z,26.02
2018-03-04T08:52:53.673Z,26.58
2018-03-04T08:55:21.150Z,23.27
2018-03-04T08:57:48.623Z,25.45
2018-03-04T09:00:16.098Z,25.15
2018-03-04T09:02:43.569Z,24.45
2018-03-04T09:05:11.928Z,24.87
2018-03-04T09:07:39.416Z,25.25
2018-03-04T09:10:06.884Z,25.50
2018-03-04T09:12:34.405Z,26.98
2018-03-04T09:15:02.648Z,25.20
2018-03-04T09:17:30.119Z,28.60
2018-03-04T09:19:57.580Z,26.40
2018-03-04T09:22:25.141Z,27.92
2018-03-04T09:24:52.696Z,25.55
2018-03-04T09:27:20.930Z,27.35
2018-03-04T09:29:48.395Z,25.62
2018-03-04T09:32:15.901Z,25.92
2018-03-04T09:34:44.140Z,26.60
2018-03-04T09:37:11.604Z,27.95
2018-03-04T09:39:39.076Z,26.90
2018-03-04T09:42:06.533Z,27.95
2018-03-04T09:44:34.110Z,25.95
2018-03-04T09:47:02.379Z,28.85
2018-03-04T09:49:30.656Z,28.15
2018-03-04T09:51:58.934Z,27.02
2018-03-04T09:54:27.180Z,26.87
2018-03-04T09:56:54.764Z,26.10
2018-03-04T09:59:22.326Z,28.12
2018-03-04T10:01:50.588Z,29.70
2018-03-04T10:04:18.056Z,27.67
2018-03-04T10:06:45.609Z,27.42
2018-03-04T10:09:13.174Z,27.87
2018-03-04T10:11:40.628Z,29.10
2018-03-04T10:14:08.169Z,28.20
2018-03-04T10:16:35.635Z,26.95
2018-03-04T10:19:03.110Z,25.52
2018-03-04T10:21:31.346Z,29.23
2018-03-04T10:23:58.832Z,29.20
2018-03-04T10:26:27.912Z,28.17
2018-03-04T10:28:55.386Z,28.05
2018-03-04T10:31:22.946Z,27.75
2018-03-04T10:33:51.228Z,29.60
2018-03-04T10:36:19.464Z,30.77
2018-03-04T10:38:47.049Z,30.15
2018-03-04T10:41:14.522Z,30.17
2018-03-04T10:43:42.830Z,30.23
2018-03-04T10:46:10.298Z,29.17
2018-03-04T10:48:37.798Z,30.40
2018-03-04T10:51:05.340Z,32.03
2018-03-04T10:53:32.820Z,29.40
2018-03-04T10:56:01.058Z,30.15
2018-03-04T10:58:28.528Z,30.67
2018-03-04T11:04:01.127Z,31.02
2018-03-04T11:06:28.604Z,29.50
2018-03-04T11:08:56.849Z,31.60
2018-03-04T11:11:24.312Z,35.05
2018-03-04T11:13:51.893Z,32.90
2018-03-04T11:16:19.352Z,30.92
2018-03-04T11:18:46.917Z,31.83
2018-03-04T11:21:15.191Z,32.33
2018-03-04T11:23:43.446Z,29.63
2018-03-04T11:26:10.921Z,31.35
2018-03-04T11:28:39.178Z,32.92
2018-03-04T11:31:06.699Z,30.60
2018-03-04T11:33:34.189Z,32.13
2018-03-04T11:36:01.669Z,31.95
2018-03-04T11:38:29.912Z,33.03
2018-03-04T11:40:57.507Z,32.17
2018-03-04T11:43:25.746Z,32.75
2018-03-04T11:45:53.357Z,31.08
2018-03-04T11:48:20.870Z,29.83
2018-03-04T11:50:48.353Z,35.30
2018-03-04T11:53:16.672Z,32.47
2018-03-04T11:55:44.140Z,30.35
2018-03-04T11:58:11.633Z,32.67
2018-03-04T12:00:39.209Z,33.33
2018-03-04T12:03:07.457Z,34.78
2018-03-04T12:05:34.941Z,32.38
2018-03-04T12:08:03.188Z,34.22
2018-03-04T12:10:30.673Z,36.17
2018-03-04T12:12:58.949Z,32.70
2018-03-04T12:15:27.194Z,33.92
2018-03-04T12:17:54.683Z,32.55
2018-03-04T12:20:22.930Z,32.80
2018-03-04T12:22:50.396Z,32.72
2018-03-04T12:25:17.947Z,32.83
2018-03-04T12:27:45.523Z,32.33
2018-03-04T12:30:13.765Z,32.58
2018-03-04T12:32:41.236Z,31.85
2018-03-04T12:35:08.897Z,31.50
2018-03-04T12:37:36.452Z,33.10
2018-03-04T12:40:03.913Z,31.75
2018-03-04T12:42:31.414Z,32.65
2018-03-04T12:44:59.029Z,32.45
2018-03-04T12:47:26.708Z,34.65
2018-03-04T12:49:54.210Z,34.55
2018-03-04T12:52:21.696Z,34.05
2018-03-04T12:54:50.193Z,34.65
2018-03-04T12:57:17.669Z,33.58
2018-03-04T12:59:45.154Z,32.03
2018-03-04T13:02:12.613Z,31.55
2018-03-04T13:04:40.112Z,31.77
2018-03-04T13:07:07.685Z,31.02
2018-03-04T13:09:35.156Z,30.73
2018-03-04T13:12:03.400Z,30.12
2018-03-04T13:14:30.889Z,32.25
2018-03-04T13:16:59.132Z,29.95
2018-03-04T13:19:26.612Z,30.60
2018-03-04T13:21:54.899Z,31.02
2018-03-04T13:24:23.128Z,28.92
2018-03-04T13:26:50.601Z,32.20
2018-03-04T13:29:18.160Z,32.33
2018-03-04T13:31:45.647Z,31.52
2018-03-04T13:34:13.968Z,33.22
2018-03-04T13:36:41.456Z,29.17
2018-03-04T13:39:08.917Z,31.23
2018-03-04T13:41:37.190Z,30.17
2018-03-04T13:44:04.660Z,30.02
2018-03-04T13:46:32.911Z,31.95
2018-03-04T13:49:00.386Z,30.83
2018-03-04T13:51:27.864Z,31.87
2018-03-04T13:53:55.342Z,29.85
2018-03-04T13:56:22.804Z,32.00
2018-03-04T13:58:50.310Z,30.10
2018-03-04T14:01:17.797Z,31.20
2018-03-04T14:03:45.258Z,28.95
2018-03-04T14:06:12.741Z,31.58
2018-03-04T14:08:40.237Z,30.77
2018-03-04T14:11:07.745Z,29.80
2018-03-04T14:13:35.240Z,29.35
2018-03-04T14:16:02.709Z,32.97
2018-03-04T14:18:30.176Z,31.25
2018-03-04T14:20:59.365Z,29.80
2018-03-04T14:23:27.637Z,31.77
2018-03-04T14:25:55.101Z,33.08
2018-03-04T14:28:23.351Z,31.08
2018-03-04T14:30:50.832Z,31.52
2018-03-04T14:33:19.118Z,30.30
2018-03-04T14:35:47.347Z,32.45
2018-03-04T14:38:14.828Z,29.02
2018-03-04T14:40:42.420Z,30.08
2018-03-04T14:43:09.963Z,31.73
2018-03-04T14:45:38.214Z,31.37
2018-03-04T14:48:05.716Z,32.28
2018-03-04T14:50:33.247Z,31.40
2018-03-04T14:53:00.712Z,30.25
2018-03-04T14:55:28.959Z,30.23
2018-03-04T14:57:56.437Z,30.70
2018-03-04T15:00:23.929Z,31.05
2018-03-04T15:02:51.393Z,30.92
2018-03-04T15:05:18.929Z,28.92
2018-03-04T15:07:46.400Z,30.65
2018-03-04T15:10:13.864Z,32.17
2018-03-04T15:12:41.351Z,30.37
2018-03-04T15:15:08.832Z,32.10
2018-03-04T15:17:36.398Z,31.05
2018-03-04T15:20:04.664Z,32.40
2018-03-04T15:22:32.137Z,31.08
2018-03-04T15:25:00.604Z,34.70
2018-03-04T15:27:28.141Z,31.65
2018-03-04T15:29:55.693Z,33.13
2018-03-04T15:32:23.306Z,33.90
2018-03-04T15:34:50.855Z,32.50
2018-03-04T15:37:19.134Z,33.63
2018-03-04T15:39:47.370Z,31.70
2018-03-04T15:42:14.849Z,35.10
2018-03-04T15:44:42.373Z,34.77
2018-03-04T15:47:09.841Z,35.67
2018-03-04T15:49:37.350Z,36.90
2018-03-04T15:52:04.823Z,34.50
2018-03-04T15:54:32.295Z,35.03
2018-03-04T15:56:59.768Z,34.40
2018-03-04T15:59:27.249Z,33.70
2018-03-04T16:01:54.734Z,34.53
2018-03-04T16:04:22.209Z,33.40
2018-03-04T16:06:49.691Z,34.93
2018-03-04T16:09:17.184Z,35.72
2018-03-04T16:11:45.464Z,36.05
2018-03-04T16:14:13.700Z,35.03
2018-03-04T16:16:41.196Z,33.53
2018-03-04T16:19:09.420Z,32.30
2018-03-04T16:21:36.892Z,34.03
2018-03-04T16:24:04.476Z,34.17
2018-03-04T16:26:31.975Z,31.52
2018-03-04T16:28:59.486Z,32.45
2018-03-04T16:31:27.049Z,34.22
2018-03-04T16:33:54.610Z,32.80
2018-03-04T16:36:22.093Z,34.33
2018-03-04T16:38:50.325Z,34.33
2018-03-04T16:41:17.785Z,33.20
2018-03-04T16:43:46.765Z,31.05
2018-03-04T16:46:14.234Z,33.88
2018-03-04T16:48:41.705Z,32.83
2018-03-04T16:51:09.292Z,34.40
2018-03-04T16:53:36.837Z,33.88
2018-03-04T16:56:05.066Z,33.58
2018-03-04T16:58:32.548Z,32.35
2018-03-04T17:01:00.015Z,30.77
2018-03-04T17:03:28.257Z,31.48
2018-03-04T17:05:55.723Z,31.70
2018-03-04T17:08:23.258Z,31.65
2018-03-04T17:10:50.736Z,32.05
2018-03-04T17:13:18.361Z,32.33
2018-03-04T17:15:45.833Z,30.52
2018-03-04T17:18:13.302Z,29.83
2018-03-04T17:20:40.898Z,30.75
2018-03-04T17:23:09.165Z,29.75
2018-03-04T17:25:36.728Z,28.87
2018-03-04T17:28:04.282Z,28.02
2018-03-04T17:30:31.891Z,30.00
2018-03-04T17:32:59.459Z,30.30
2018-03-04T17:35:26.951Z,28.55
2018-03-04T17:37:54.417Z,27.77
2018-03-04T17:40:22.652Z,29.80
2018-03-04T17:42:50.137Z,27.08
2018-03-04T17:45:17.632Z,29.60
2018-03-04T17:47:46.072Z,27.30
2018-03-04T17:50:13.649Z,28.20
2018-03-04T17:52:41.906Z,27.33
2018-03-04T17:55:09.510Z,26.42
2018-03-04T17:57:36.983Z,29.45
2018-03-04T18:00:04.448Z,27.05
2018-03-04T18:02:31.919Z,24.65
2018-03-04T18:04:59.388Z,29.20
2018-03-04T18:07:26.859Z,27.00
2018-03-04T18:09:54.414Z,25.30
2018-03-04T18:12:21.927Z,27.33
2018-03-04T18:14:49.388Z,27.37
2018-03-04T18:17:16.889Z,26.62
2018-03-04T18:19:44.358Z,26.33
2018-03-04T18:22:12.588Z,26.25
2018-03-04T18:24:40.084Z,27.95
2018-03-04T18:27:07.574Z,26.45
2018-03-04T18:29:35.098Z,26.17
2018-03-04T18:32:02.586Z,26.52
2018-03-04T18:34:30.077Z,29.58
2018-03-04T18:36:57.568Z,26.85
2018-03-04T18:39:25.125Z,28.15
2018-03-04T18:41:52.596Z,27.87
2018-03-04T18:44:20.866Z,28.17
2018-03-04T18:46:49.114Z,26.02
2018-03-04T18:49:16.581Z,29.27
2018-03-04T18:51:44.057Z,28.83
2018-03-04T18:54:11.610Z,29.27
2018-03-04T18:56:39.072Z,28.15
2018-03-04T18:59:07.396Z,29.87
2018-03-04T19:01:34.861Z,31.73
2018-03-04T19:04:02.446Z,27.05
2018-03-04T19:06:29.918Z,30.40
2018-03-04T19:08:57.382Z,28.08
2018-03-04T19:11:25.639Z,31.80
2018-03-04T19:13:53.206Z,28.83
2018-03-04T19:16:21.466Z,32.30
2018-03-04T19:18:48.938Z,29.73
2018-03-04T19:21:16.501Z,31.10
2018-03-04T19:23:44.745Z,27.55
2018-03-04T19:26:12.228Z,31.37
2018-03-04T19:28:39.697Z,31.05
2018-03-04T19:31:07.921Z,32.63
2018-03-04T19:33:35.515Z,30.70
2018-03-04T19:36:03.800Z,31.50
2018-03-04T19:38:31.259Z,30.58
2018-03-04T19:40:59.490Z,32.38
2018-03-04T19:43:26.982Z,33.45
2018-03-04T19:45:54.448Z,33.25
2018-03-04T19:48:22.736Z,31.08
2018-03-04T19:50:50.972Z,32.08
2018-03-04T19:53:18.496Z,32.38
2018-03-04T19:55:45.967Z,30.52
2018-03-04T19:58:13.455Z,31.87
2018-03-04T20:00:40.924Z,31.95
2018-03-04T20:03:08.393Z,33.70
2018-03-04T20:05:36.638Z,32.45
2018-03-04T20:08:04.102Z,32.55
2018-03-04T20:10:33.108Z,33.60
2018-03-04T20:13:01.401Z,30.37
2018-03-04T20:15:29.650Z,33.78
2018-03-04T20:17:57.174Z,31.70
2018-03-04T20:20:24.687Z,33.70
2018-03-04T20:22:52.127Z,33.10
2018-03-04T20:25:19.593Z,33.50
2018-03-04T20:27:47.835Z,33.55
2018-03-04T20:30:15.371Z,32.28
2018-03-04T20:32:42.865Z,34.55
2018-03-04T20:35:10.320Z,31.55
2018-03-04T20:37:37.878Z,32.78
2018-03-04T20:40:05.437Z,33.30
2018-03-04T20:42:32.913Z,34.70
2018-03-04T20:45:01.227Z,34.38
2018-03-04T20:47:28.708Z,33.22
2018-03-04T20:49:56.292Z,31.55
2018-03-04T20:52:23.765Z,32.95
2018-03-04T20:54:52.015Z,33.08
2018-03-04T20:57:19.488Z,30.95
2018-03-04T20:59:47.044Z,35.08
2018-03-04T21:02:14.538Z,31.90
2018-03-04T21:04:42.038Z,33.15
2018-03-04T21:07:09.499Z,33.33
2018-03-04T21:09:36.962Z,33.47
2018-03-04T21:12:04.541Z,31.90
2018-03-04T21:14:32.788Z,33.30
2018-03-04T21:17:00.352Z,30.35
2018-03-04T21:19:27.812Z,32.97
2018-03-04T21:21:55.377Z,33.15
2018-03-04T21:24:22.951Z,31.37
2018-03-04T21:26:51.192Z,32.33
2018-03-04T21:29:18.678Z,34.75
2018-03-04T21:31:46.936Z,33.60
2018-03-04T21:34:15.179Z,30.73
2018-03-04T21:36:42.669Z,32.22
2018-03-04T21:39:10.142Z,32.45
2018-03-04T21:41:37.687Z,31.65
2018-03-04T21:44:05.246Z,30.33
2018-03-04T21:46:32.700Z,33.55
2018-03-04T21:49:00.160Z,34.42
2018-03-04T21:51:27.722Z,32.65
2018-03-04T21:53:55.954Z,31.08
2018-03-04T21:56:23.415Z,31.67
2018-03-04T21:58:50.904Z,32.38
2018-03-04T22:01:18.383Z,34.22
2018-03-04T22:03:46.616Z,32.00
2018-03-04T22:06:14.089Z,31.55
2018-03-04T22:08:41.652Z,31.80
2018-03-04T22:11:09.213Z,34.38
2018-03-04T22:13:36.671Z,31.62
2018-03-04T22:16:04.229Z,32.63
2018-03-04T22:18:31.789Z,32.30
2018-03-04T22:20:59.257Z,31.35
2018-03-04T22:23:27.731Z,30.73
2018-03-04T22:25:55.284Z,31.20
2018-03-04T22:28:23.559Z,28.50
2018-03-04T22:30:51.125Z,30.45
2018-03-04T22:33:18.675Z,30.92
2018-03-04T22:35:46.962Z,30.25
2018-03-04T22:38:15.200Z,30.12
2018-03-04T22:40:42.678Z,30.65
2018-03-04T22:43:10.239Z,32.10
2018-03-04T22:45:37.720Z,31.00
2018-03-04T22:48:05.971Z,29.75
2018-03-04T22:50:33.537Z,30.35
2018-03-04T22:53:01.004Z,29.98
2018-03-04T22:55:28.472Z,30.25
2018-03-04T22:57:56.694Z,30.95
2018-03-04T23:00:24.159Z,31.50
2018-03-04T23:02:51.671Z,28.58
2018-03-04T23:05:19.891Z,31.60
2018-03-04T23:07:47.415Z,32.70
2018-03-04T23:10:14.909Z,30.67
2018-03-04T23:12:42.360Z,29.95
2018-03-04T23:15:09.832Z,32.17
2018-03-04T23:17:37.342Z,29.63
2018-03-04T23:20:04.804Z,31.55
2018-03-04T23:22:32.326Z,28.83
2018-03-04T23:24:59.784Z,31.60
2018-03-04T23:27:28.026Z,31.60
2018-03-04T23:29:55.500Z,29.40
2018-03-04T23:32:22.967Z,28.90
2018-03-04T23:34:50.442Z,29.98
2018-03-04T23:37:18.697Z,31.05
2018-03-04T23:39:46.248Z,29.87
2018-03-04T23:42:13.727Z,29.35
2018-03-04T23:44:41.978Z,28.90
2018-03-04T23:47:09.440Z,29.60
2018-03-04T23:49:36.930Z,29.48
2018-03-04T23:52:04.461Z,28.95
2018-03-04T23:54:31.937Z,29.42
2018-03-04T23:57:00.164Z,28.00
2018-03-04T23:59:27.638Z,30.00
